sensor_id;sensor_type;location;lat;lon;timestamp;P1;durP1;ratioP1;P2;durP2;ratioP2
24567;SDS011;12731;52.182;8.716;2023-07-31T00:01:01;5.57;;;2.95;;
24567;SDS011;12731;52.182;8.716;2023-07-31T00:03:28;4.72;;;2.30;;
24567;SDS011;12731;52.182;8.716;2023-07-31T00:05:55;2.88;;;2.40;;
24567;SDS011;12731;52.182;8.716;2023-07-31T00:08:21;4.70;;;2.22;;
24567;SDS011;12731;52.182;8.716;2023-07-31T00:10:51;4.03;;;2.30;;
24567;SDS011;12731;52.182;8.716;2023-07-31T00:13:18;3.35;;;2.40;;
24567;SDS011;12731;52.182;8.716;2023-07-31T00:15:45;3.95;;;2.10;;
24567;SDS011;12731;52.182;8.716;2023-07-31T00:18:11;3.97;;;1.95;;
24567;SDS011;12731;52.182;8.716;2023-07-31T00:20:39;2.83;;;2.05;;
24567;SDS011;12731;52.182;8.716;2023-07-31T00:23:05;4.00;;;1.85;;
24567;SDS011;12731;52.182;8.716;2023-07-31T00:25:32;2.05;;;1.67;;
24567;SDS011;12731;52.182;8.716;2023-07-31T00:27:58;2.08;;;1.65;;
24567;SDS011;12731;52.182;8.716;2023-07-31T00:30:24;4.07;;;1.75;;
24567;SDS011;12731;52.182;8.716;2023-07-31T00:32:53;2.25;;;1.70;;
24567;SDS011;12731;52.182;8.716;2023-07-31T00:35:19;2.20;;;1.70;;
24567;SDS011;12731;52.182;8.716;2023-07-31T00:37:46;5.13;;;1.80;;
24567;SDS011;12731;52.182;8.716;2023-07-31T00:40:12;1.75;;;1.60;;
24567;SDS011;12731;52.182;8.716;2023-07-31T00:42:40;2.95;;;1.80;;
24567;SDS011;12731;52.182;8.716;2023-07-31T00:45:06;2.90;;;1.55;;
24567;SDS011;12731;52.182;8.716;2023-07-31T00:47:33;2.35;;;1.70;;
24567;SDS011;12731;52.182;8.716;2023-07-31T00:49:59;1.77;;;1.60;;
24567;SDS011;12731;52.182;8.716;2023-07-31T00:52:26;2.35;;;1.50;;
24567;SDS011;12731;52.182;8.716;2023-07-31T00:54:52;1.90;;;1.60;;
24567;SDS011;12731;52.182;8.716;2023-07-31T00:57:19;1.70;;;1.52;;
24567;SDS011;12731;52.182;8.716;2023-07-31T00:59:45;2.42;;;1.90;;
24567;SDS011;12731;52.182;8.716;2023-07-31T01:02:12;2.58;;;1.85;;
24567;SDS011;12731;52.182;8.716;2023-07-31T01:04:41;2.13;;;1.75;;
24567;SDS011;12731;52.182;8.716;2023-07-31T01:07:20;2.03;;;1.92;;
24567;SDS011;12731;52.182;8.716;2023-07-31T01:12:26;2.70;;;2.35;;
24567;SDS011;12731;52.182;8.716;2023-07-31T01:17:27;3.05;;;2.85;;
24567;SDS011;12731;52.182;8.716;2023-07-31T01:19:54;3.15;;;2.85;;
24567;SDS011;12731;52.182;8.716;2023-07-31T01:22:30;3.10;;;2.90;;
24567;SDS011;12731;52.182;8.716;2023-07-31T01:25:13;3.97;;;2.97;;
24567;SDS011;12731;52.182;8.716;2023-07-31T01:28:06;3.10;;;2.90;;
24567;SDS011;12731;52.182;8.716;2023-07-31T01:30:43;3.15;;;2.90;;
24567;SDS011;12731;52.182;8.716;2023-07-31T01:33:11;3.63;;;3.10;;
24567;SDS011;12731;52.182;8.716;2023-07-31T01:35:37;3.60;;;3.30;;
24567;SDS011;12731;52.182;8.716;2023-07-31T01:38:05;4.90;;;3.75;;
24567;SDS011;12731;52.182;8.716;2023-07-31T01:40:32;3.85;;;3.30;;
24567;SDS011;12731;52.182;8.716;2023-07-31T01:42:58;3.90;;;3.50;;
24567;SDS011;12731;52.182;8.716;2023-07-31T01:45:25;5.70;;;3.70;;
24567;SDS011;12731;52.182;8.716;2023-07-31T01:47:51;3.95;;;3.55;;
24567;SDS011;12731;52.182;8.716;2023-07-31T01:50:18;3.58;;;3.28;;
24567;SDS011;12731;52.182;8.716;2023-07-31T01:52:44;3.90;;;3.58;;
24567;SDS011;12731;52.182;8.716;2023-07-31T01:55:11;4.00;;;3.60;;
24567;SDS011;12731;52.182;8.716;2023-07-31T01:57:37;3.20;;;2.90;;
24567;SDS011;12731;52.182;8.716;2023-07-31T02:00:05;3.80;;;2.88;;
24567;SDS011;12731;52.182;8.716;2023-07-31T02:02:32;3.03;;;2.65;;
24567;SDS011;12731;52.182;8.716;2023-07-31T02:04:59;2.70;;;2.50;;
24567;SDS011;12731;52.182;8.716;2023-07-31T02:07:25;3.20;;;2.40;;
24567;SDS011;12731;52.182;8.716;2023-07-31T02:09:52;3.17;;;2.30;;
24567;SDS011;12731;52.182;8.716;2023-07-31T02:12:18;3.58;;;2.70;;
24567;SDS011;12731;52.182;8.716;2023-07-31T02:14:45;3.42;;;2.20;;
24567;SDS011;12731;52.182;8.716;2023-07-31T02:17:11;2.85;;;2.20;;
24567;SDS011;12731;52.182;8.716;2023-07-31T02:19:38;2.47;;;2.00;;
24567;SDS011;12731;52.182;8.716;2023-07-31T02:22:04;2.50;;;2.20;;
24567;SDS011;12731;52.182;8.716;2023-07-31T02:24:31;2.42;;;2.10;;
24567;SDS011;12731;52.182;8.716;2023-07-31T02:26:58;3.28;;;2.30;;
24567;SDS011;12731;52.182;8.716;2023-07-31T02:29:24;3.33;;;2.30;;
24567;SDS011;12731;52.182;8.716;2023-07-31T02:31:51;5.15;;;2.60;;
24567;SDS011;12731;52.182;8.716;2023-07-31T02:34:17;3.50;;;2.33;;
24567;SDS011;12731;52.182;8.716;2023-07-31T02:36:44;3.03;;;2.53;;
24567;SDS011;12731;52.182;8.716;2023-07-31T02:39:10;5.57;;;2.55;;
24567;SDS011;12731;52.182;8.716;2023-07-31T02:41:37;2.67;;;2.08;;
24567;SDS011;12731;52.182;8.716;2023-07-31T02:44:03;4.03;;;2.40;;
24567;SDS011;12731;52.182;8.716;2023-07-31T02:46:30;3.67;;;2.55;;
24567;SDS011;12731;52.182;8.716;2023-07-31T02:48:57;3.63;;;2.33;;
24567;SDS011;12731;52.182;8.716;2023-07-31T02:51:24;3.72;;;2.30;;
24567;SDS011;12731;52.182;8.716;2023-07-31T02:53:50;4.65;;;1.90;;
24567;SDS011;12731;52.182;8.716;2023-07-31T02:56:17;4.57;;;2.30;;
24567;SDS011;12731;52.182;8.716;2023-07-31T02:58:43;4.68;;;1.88;;
24567;SDS011;12731;52.182;8.716;2023-07-31T03:01:10;6.45;;;2.40;;
24567;SDS011;12731;52.182;8.716;2023-07-31T03:03:36;2.35;;;2.03;;
24567;SDS011;12731;52.182;8.716;2023-07-31T03:06:03;2.42;;;2.03;;
24567;SDS011;12731;52.182;8.716;2023-07-31T03:08:29;2.65;;;1.80;;
24567;SDS011;12731;52.182;8.716;2023-07-31T03:10:56;3.45;;;1.80;;
24567;SDS011;12731;52.182;8.716;2023-07-31T03:13:23;3.55;;;1.50;;
24567;SDS011;12731;52.182;8.716;2023-07-31T03:15:50;1.52;;;1.40;;
24567;SDS011;12731;52.182;8.716;2023-07-31T03:18:16;2.97;;;1.50;;
24567;SDS011;12731;52.182;8.716;2023-07-31T03:20:43;2.55;;;1.40;;
24567;SDS011;12731;52.182;8.716;2023-07-31T03:23:10;2.03;;;1.23;;
24567;SDS011;12731;52.182;8.716;2023-07-31T03:25:37;2.95;;;1.27;;
24567;SDS011;12731;52.182;8.716;2023-07-31T03:28:03;1.52;;;1.10;;
24567;SDS011;12731;52.182;8.716;2023-07-31T03:30:30;1.88;;;1.13;;
24567;SDS011;12731;52.182;8.716;2023-07-31T03:32:56;2.28;;;1.00;;
24567;SDS011;12731;52.182;8.716;2023-07-31T03:35:23;2.75;;;1.00;;
24567;SDS011;12731;52.182;8.716;2023-07-31T03:37:49;2.10;;;0.95;;
24567;SDS011;12731;52.182;8.716;2023-07-31T03:40:16;0.93;;;0.80;;
24567;SDS011;12731;52.182;8.716;2023-07-31T03:42:42;1.20;;;1.00;;
24567;SDS011;12731;52.182;8.716;2023-07-31T03:45:09;2.08;;;1.20;;
24567;SDS011;12731;52.182;8.716;2023-07-31T03:47:36;2.13;;;1.15;;
24567;SDS011;12731;52.182;8.716;2023-07-31T03:50:02;3.53;;;1.60;;
24567;SDS011;12731;52.182;8.716;2023-07-31T03:52:29;3.78;;;2.42;;
24567;SDS011;12731;52.182;8.716;2023-07-31T03:54:55;2.28;;;2.00;;
24567;SDS011;12731;52.182;8.716;2023-07-31T03:57:22;3.30;;;3.00;;
24567;SDS011;12731;52.182;8.716;2023-07-31T03:59:49;4.97;;;3.78;;
24567;SDS011;12731;52.182;8.716;2023-07-31T04:02:16;4.00;;;3.30;;
24567;SDS011;12731;52.182;8.716;2023-07-31T04:04:45;5.85;;;3.75;;
24567;SDS011;12731;52.182;8.716;2023-07-31T04:07:11;7.15;;;4.72;;
24567;SDS011;12731;52.182;8.716;2023-07-31T04:09:38;8.27;;;5.38;;
24567;SDS011;12731;52.182;8.716;2023-07-31T04:12:04;10.55;;;5.97;;
24567;SDS011;12731;52.182;8.716;2023-07-31T04:14:31;11.45;;;7.03;;
24567;SDS011;12731;52.182;8.716;2023-07-31T04:16:57;11.88;;;7.93;;
24567;SDS011;12731;52.182;8.716;2023-07-31T04:19:24;12.88;;;9.18;;
24567;SDS011;12731;52.182;8.716;2023-07-31T04:21:50;15.45;;;9.43;;
24567;SDS011;12731;52.182;8.716;2023-07-31T04:24:17;19.70;;;11.00;;
24567;SDS011;12731;52.182;8.716;2023-07-31T04:26:50;22.63;;;12.65;;
24567;SDS011;12731;52.182;8.716;2023-07-31T04:29:17;21.75;;;13.00;;
24567;SDS011;12731;52.182;8.716;2023-07-31T04:31:43;19.10;;;13.23;;
24567;SDS011;12731;52.182;8.716;2023-07-31T04:34:10;22.98;;;13.63;;
24567;SDS011;12731;52.182;8.716;2023-07-31T04:36:37;20.65;;;13.65;;
24567;SDS011;12731;52.182;8.716;2023-07-31T04:39:04;20.80;;;13.48;;
24567;SDS011;12731;52.182;8.716;2023-07-31T04:41:31;21.67;;;13.43;;
24567;SDS011;12731;52.182;8.716;2023-07-31T04:43:57;17.13;;;11.80;;
24567;SDS011;12731;52.182;8.716;2023-07-31T04:46:24;18.92;;;12.05;;
24567;SDS011;12731;52.182;8.716;2023-07-31T04:48:50;17.92;;;11.70;;
24567;SDS011;12731;52.182;8.716;2023-07-31T04:51:17;18.08;;;12.32;;
24567;SDS011;12731;52.182;8.716;2023-07-31T04:53:47;16.90;;;12.75;;
24567;SDS011;12731;52.182;8.716;2023-07-31T04:56:13;19.70;;;11.98;;
24567;SDS011;12731;52.182;8.716;2023-07-31T04:58:41;19.98;;;12.63;;
24567;SDS011;12731;52.182;8.716;2023-07-31T05:01:08;18.17;;;12.13;;
24567;SDS011;12731;52.182;8.716;2023-07-31T05:03:34;17.50;;;11.73;;
24567;SDS011;12731;52.182;8.716;2023-07-31T05:06:01;19.02;;;12.20;;
24567;SDS011;12731;52.182;8.716;2023-07-31T05:08:28;19.88;;;12.68;;
24567;SDS011;12731;52.182;8.716;2023-07-31T05:10:54;20.90;;;13.07;;
24567;SDS011;12731;52.182;8.716;2023-07-31T05:13:21;24.58;;;13.57;;
24567;SDS011;12731;52.182;8.716;2023-07-31T05:15:47;17.63;;;12.32;;
24567;SDS011;12731;52.182;8.716;2023-07-31T05:18:15;21.88;;;13.25;;
24567;SDS011;12731;52.182;8.716;2023-07-31T05:20:42;18.38;;;12.23;;
24567;SDS011;12731;52.182;8.716;2023-07-31T05:23:08;18.40;;;11.77;;
24567;SDS011;12731;52.182;8.716;2023-07-31T05:25:35;23.15;;;12.25;;
24567;SDS011;12731;52.182;8.716;2023-07-31T05:28:01;17.70;;;11.82;;
24567;SDS011;12731;52.182;8.716;2023-07-31T05:30:29;22.15;;;12.02;;
24567;SDS011;12731;52.182;8.716;2023-07-31T05:32:56;21.17;;;12.05;;
24567;SDS011;12731;52.182;8.716;2023-07-31T05:35:23;17.30;;;10.75;;
24567;SDS011;12731;52.182;8.716;2023-07-31T05:37:49;22.98;;;11.73;;
24567;SDS011;12731;52.182;8.716;2023-07-31T05:40:16;21.65;;;11.90;;
24567;SDS011;12731;52.182;8.716;2023-07-31T05:42:42;18.85;;;10.68;;
24567;SDS011;12731;52.182;8.716;2023-07-31T05:45:09;21.85;;;11.40;;
24567;SDS011;12731;52.182;8.716;2023-07-31T05:47:35;24.67;;;10.65;;
24567;SDS011;12731;52.182;8.716;2023-07-31T05:50:02;22.50;;;10.43;;
24567;SDS011;12731;52.182;8.716;2023-07-31T05:52:29;22.52;;;10.20;;
24567;SDS011;12731;52.182;8.716;2023-07-31T05:54:55;24.35;;;10.90;;
24567;SDS011;12731;52.182;8.716;2023-07-31T05:57:22;20.83;;;10.00;;
24567;SDS011;12731;52.182;8.716;2023-07-31T05:59:48;21.85;;;9.73;;
24567;SDS011;12731;52.182;8.716;2023-07-31T06:02:15;22.00;;;10.35;;
24567;SDS011;12731;52.182;8.716;2023-07-31T06:04:41;22.55;;;9.57;;
24567;SDS011;12731;52.182;8.716;2023-07-31T06:07:08;18.90;;;9.40;;
24567;SDS011;12731;52.182;8.716;2023-07-31T06:09:34;18.63;;;8.98;;
24567;SDS011;12731;52.182;8.716;2023-07-31T06:12:01;18.77;;;9.20;;
24567;SDS011;12731;52.182;8.716;2023-07-31T06:14:27;19.73;;;9.23;;
24567;SDS011;12731;52.182;8.716;2023-07-31T06:16:54;17.23;;;8.88;;
24567;SDS011;12731;52.182;8.716;2023-07-31T06:19:21;16.60;;;8.75;;
24567;SDS011;12731;52.182;8.716;2023-07-31T06:21:47;18.10;;;8.45;;
24567;SDS011;12731;52.182;8.716;2023-07-31T06:24:14;18.73;;;8.55;;
24567;SDS011;12731;52.182;8.716;2023-07-31T06:26:45;17.58;;;8.23;;
24567;SDS011;12731;52.182;8.716;2023-07-31T06:29:11;17.27;;;9.50;;
24567;SDS011;12731;52.182;8.716;2023-07-31T06:31:38;17.70;;;8.15;;
24567;SDS011;12731;52.182;8.716;2023-07-31T06:34:05;17.30;;;8.20;;
24567;SDS011;12731;52.182;8.716;2023-07-31T06:36:31;20.15;;;9.07;;
24567;SDS011;12731;52.182;8.716;2023-07-31T06:38:57;17.00;;;8.00;;
24567;SDS011;12731;52.182;8.716;2023-07-31T06:41:24;16.60;;;8.07;;
24567;SDS011;12731;52.182;8.716;2023-07-31T06:43:51;13.85;;;7.85;;
24567;SDS011;12731;52.182;8.716;2023-07-31T06:46:17;18.17;;;8.15;;
24567;SDS011;12731;52.182;8.716;2023-07-31T06:48:44;16.85;;;8.27;;
24567;SDS011;12731;52.182;8.716;2023-07-31T06:51:11;15.98;;;7.80;;
24567;SDS011;12731;52.182;8.716;2023-07-31T06:53:37;18.13;;;9.00;;
24567;SDS011;12731;52.182;8.716;2023-07-31T06:56:04;20.50;;;8.18;;
24567;SDS011;12731;52.182;8.716;2023-07-31T06:58:30;18.60;;;7.93;;
24567;SDS011;12731;52.182;8.716;2023-07-31T07:01:04;23.63;;;8.82;;
24567;SDS011;12731;52.182;8.716;2023-07-31T07:03:31;17.55;;;8.02;;
24567;SDS011;12731;52.182;8.716;2023-07-31T07:06:01;17.20;;;8.40;;
24567;SDS011;12731;52.182;8.716;2023-07-31T07:08:27;16.90;;;7.80;;
24567;SDS011;12731;52.182;8.716;2023-07-31T07:10:54;20.90;;;8.32;;
24567;SDS011;12731;52.182;8.716;2023-07-31T07:13:21;16.48;;;8.38;;
24567;SDS011;12731;52.182;8.716;2023-07-31T07:15:48;18.38;;;7.72;;
24567;SDS011;12731;52.182;8.716;2023-07-31T07:18:15;15.52;;;8.18;;
24567;SDS011;12731;52.182;8.716;2023-07-31T07:20:51;15.82;;;8.10;;
24567;SDS011;12731;52.182;8.716;2023-07-31T07:23:19;16.67;;;8.00;;
24567;SDS011;12731;52.182;8.716;2023-07-31T07:25:47;16.45;;;7.85;;
24567;SDS011;12731;52.182;8.716;2023-07-31T07:28:14;17.50;;;8.45;;
24567;SDS011;12731;52.182;8.716;2023-07-31T07:30:40;18.33;;;8.20;;
24567;SDS011;12731;52.182;8.716;2023-07-31T07:33:07;17.02;;;8.05;;
24567;SDS011;12731;52.182;8.716;2023-07-31T07:35:34;15.13;;;8.13;;
24567;SDS011;12731;52.182;8.716;2023-07-31T07:38:02;15.68;;;7.57;;
24567;SDS011;12731;52.182;8.716;2023-07-31T07:40:29;17.75;;;8.13;;
24567;SDS011;12731;52.182;8.716;2023-07-31T07:42:55;15.23;;;7.75;;
24567;SDS011;12731;52.182;8.716;2023-07-31T07:45:24;14.48;;;6.80;;
24567;SDS011;12731;52.182;8.716;2023-07-31T07:47:50;16.02;;;7.38;;
24567;SDS011;12731;52.182;8.716;2023-07-31T07:50:17;13.55;;;7.22;;
24567;SDS011;12731;52.182;8.716;2023-07-31T07:52:44;12.25;;;7.68;;
24567;SDS011;12731;52.182;8.716;2023-07-31T07:55:10;14.90;;;7.57;;
24567;SDS011;12731;52.182;8.716;2023-07-31T07:57:37;17.75;;;8.02;;
24567;SDS011;12731;52.182;8.716;2023-07-31T08:00:03;13.57;;;7.80;;
24567;SDS011;12731;52.182;8.716;2023-07-31T08:02:30;13.70;;;8.48;;
24567;SDS011;12731;52.182;8.716;2023-07-31T08:04:57;14.60;;;8.00;;
24567;SDS011;12731;52.182;8.716;2023-07-31T08:07:23;12.68;;;8.00;;
24567;SDS011;12731;52.182;8.716;2023-07-31T08:09:50;17.73;;;8.85;;
24567;SDS011;12731;52.182;8.716;2023-07-31T08:12:16;18.08;;;9.15;;
24567;SDS011;12731;52.182;8.716;2023-07-31T08:14:43;16.73;;;8.98;;
24567;SDS011;12731;52.182;8.716;2023-07-31T08:17:10;18.17;;;8.70;;
24567;SDS011;12731;52.182;8.716;2023-07-31T08:19:36;15.02;;;8.32;;
24567;SDS011;12731;52.182;8.716;2023-07-31T08:22:03;18.10;;;8.63;;
24567;SDS011;12731;52.182;8.716;2023-07-31T08:24:29;14.60;;;8.40;;
24567;SDS011;12731;52.182;8.716;2023-07-31T08:26:56;14.25;;;7.50;;
24567;SDS011;12731;52.182;8.716;2023-07-31T08:29:22;13.27;;;8.07;;
24567;SDS011;12731;52.182;8.716;2023-07-31T08:31:50;11.68;;;7.03;;
24567;SDS011;12731;52.182;8.716;2023-07-31T08:34:16;10.43;;;7.40;;
24567;SDS011;12731;52.182;8.716;2023-07-31T08:36:43;11.80;;;6.80;;
24567;SDS011;12731;52.182;8.716;2023-07-31T08:39:09;9.32;;;6.15;;
24567;SDS011;12731;52.182;8.716;2023-07-31T08:41:39;10.60;;;5.85;;
24567;SDS011;12731;52.182;8.716;2023-07-31T08:44:06;8.40;;;5.07;;
24567;SDS011;12731;52.182;8.716;2023-07-31T08:46:33;8.75;;;5.28;;
24567;SDS011;12731;52.182;8.716;2023-07-31T08:49:01;6.10;;;4.75;;
24567;SDS011;12731;52.182;8.716;2023-07-31T08:51:31;6.47;;;4.60;;
24567;SDS011;12731;52.182;8.716;2023-07-31T08:53:59;6.43;;;4.95;;
24567;SDS011;12731;52.182;8.716;2023-07-31T08:56:27;8.30;;;5.00;;
24567;SDS011;12731;52.182;8.716;2023-07-31T08:58:54;6.50;;;4.68;;
24567;SDS011;12731;52.182;8.716;2023-07-31T09:01:21;6.53;;;5.10;;
24567;SDS011;12731;52.182;8.716;2023-07-31T09:03:48;7.57;;;5.32;;
24567;SDS011;12731;52.182;8.716;2023-07-31T09:06:17;8.18;;;5.30;;
24567;SDS011;12731;52.182;8.716;2023-07-31T09:08:45;7.10;;;5.20;;
24567;SDS011;12731;52.182;8.716;2023-07-31T09:11:11;6.97;;;4.93;;
24567;SDS011;12731;52.182;8.716;2023-07-31T09:13:38;7.45;;;5.15;;
24567;SDS011;12731;52.182;8.716;2023-07-31T09:16:07;8.10;;;5.00;;
24567;SDS011;12731;52.182;8.716;2023-07-31T09:18:52;5.65;;;4.88;;
24567;SDS011;12731;52.182;8.716;2023-07-31T09:21:20;6.65;;;4.55;;
24567;SDS011;12731;52.182;8.716;2023-07-31T09:23:47;5.85;;;4.15;;
24567;SDS011;12731;52.182;8.716;2023-07-31T09:26:28;4.95;;;4.22;;
24567;SDS011;12731;52.182;8.716;2023-07-31T09:28:56;7.15;;;4.68;;
24567;SDS011;12731;52.182;8.716;2023-07-31T09:31:39;5.60;;;3.42;;
24567;SDS011;12731;52.182;8.716;2023-07-31T09:34:10;4.40;;;3.80;;
24567;SDS011;12731;52.182;8.716;2023-07-31T09:36:42;5.35;;;4.47;;
24567;SDS011;12731;52.182;8.716;2023-07-31T09:39:10;5.78;;;4.35;;
24567;SDS011;12731;52.182;8.716;2023-07-31T09:41:39;5.47;;;3.85;;
24567;SDS011;12731;52.182;8.716;2023-07-31T09:44:07;4.28;;;3.83;;
24567;SDS011;12731;52.182;8.716;2023-07-31T09:46:36;4.82;;;4.18;;
24567;SDS011;12731;52.182;8.716;2023-07-31T09:49:05;5.47;;;3.85;;
24567;SDS011;12731;52.182;8.716;2023-07-31T09:51:33;4.07;;;3.65;;
24567;SDS011;12731;52.182;8.716;2023-07-31T09:54:14;5.18;;;3.90;;
24567;SDS011;12731;52.182;8.716;2023-07-31T09:56:42;5.68;;;4.20;;
24567;SDS011;12731;52.182;8.716;2023-07-31T09:59:10;5.45;;;3.40;;
24567;SDS011;12731;52.182;8.716;2023-07-31T10:01:49;3.65;;;3.08;;
24567;SDS011;12731;52.182;8.716;2023-07-31T10:04:16;4.15;;;3.00;;
24567;SDS011;12731;52.182;8.716;2023-07-31T10:06:47;4.50;;;3.00;;
24567;SDS011;12731;52.182;8.716;2023-07-31T10:09:15;5.50;;;3.53;;
24567;SDS011;12731;52.182;8.716;2023-07-31T10:11:46;4.85;;;3.10;;
24567;SDS011;12731;52.182;8.716;2023-07-31T10:14:20;5.25;;;3.50;;
24567;SDS011;12731;52.182;8.716;2023-07-31T10:16:48;6.03;;;3.58;;
24567;SDS011;12731;52.182;8.716;2023-07-31T10:19:16;4.50;;;3.55;;
24567;SDS011;12731;52.182;8.716;2023-07-31T10:21:43;5.97;;;3.42;;
24567;SDS011;12731;52.182;8.716;2023-07-31T10:24:10;4.05;;;3.38;;
24567;SDS011;12731;52.182;8.716;2023-07-31T10:26:37;6.00;;;3.47;;
24567;SDS011;12731;52.182;8.716;2023-07-31T10:29:05;4.50;;;3.22;;
24567;SDS011;12731;52.182;8.716;2023-07-31T10:31:32;3.55;;;3.17;;
24567;SDS011;12731;52.182;8.716;2023-07-31T10:34:00;4.70;;;3.00;;
24567;SDS011;12731;52.182;8.716;2023-07-31T10:36:27;4.68;;;3.10;;
24567;SDS011;12731;52.182;8.716;2023-07-31T10:38:55;2.58;;;2.35;;
24567;SDS011;12731;52.182;8.716;2023-07-31T10:41:28;4.63;;;2.92;;
24567;SDS011;12731;52.182;8.716;2023-07-31T10:43:59;3.58;;;2.60;;
24567;SDS011;12731;52.182;8.716;2023-07-31T10:46:30;2.80;;;2.60;;
24567;SDS011;12731;52.182;8.716;2023-07-31T10:48:57;2.55;;;1.90;;
24567;SDS011;12731;52.182;8.716;2023-07-31T10:51:26;3.28;;;2.10;;
24567;SDS011;12731;52.182;8.716;2023-07-31T10:54:11;2.10;;;1.90;;
24567;SDS011;12731;52.182;8.716;2023-07-31T10:56:40;2.30;;;1.98;;
24567;SDS011;12731;52.182;8.716;2023-07-31T10:59:11;2.47;;;1.80;;
24567;SDS011;12731;52.182;8.716;2023-07-31T11:04:26;2.15;;;1.50;;
24567;SDS011;12731;52.182;8.716;2023-07-31T11:07:01;1.92;;;1.70;;
24567;SDS011;12731;52.182;8.716;2023-07-31T11:09:29;1.67;;;1.58;;
24567;SDS011;12731;52.182;8.716;2023-07-31T11:11:58;1.70;;;1.60;;
24567;SDS011;12731;52.182;8.716;2023-07-31T11:14:25;2.33;;;1.65;;
24567;SDS011;12731;52.182;8.716;2023-07-31T11:16:52;3.00;;;1.58;;
24567;SDS011;12731;52.182;8.716;2023-07-31T11:19:22;1.70;;;1.40;;
24567;SDS011;12731;52.182;8.716;2023-07-31T11:21:53;1.50;;;1.40;;
24567;SDS011;12731;52.182;8.716;2023-07-31T11:24:20;2.58;;;1.50;;
24567;SDS011;12731;52.182;8.716;2023-07-31T11:26:53;2.58;;;1.77;;
24567;SDS011;12731;52.182;8.716;2023-07-31T11:29:20;2.28;;;1.80;;
24567;SDS011;12731;52.182;8.716;2023-07-31T11:31:46;2.00;;;1.60;;
24567;SDS011;12731;52.182;8.716;2023-07-31T11:34:14;1.73;;;1.63;;
24567;SDS011;12731;52.182;8.716;2023-07-31T11:36:41;2.05;;;1.42;;
24567;SDS011;12731;52.182;8.716;2023-07-31T11:39:19;2.17;;;1.40;;
24567;SDS011;12731;52.182;8.716;2023-07-31T11:41:45;1.52;;;1.42;;
24567;SDS011;12731;52.182;8.716;2023-07-31T11:44:12;1.58;;;1.42;;
24567;SDS011;12731;52.182;8.716;2023-07-31T11:46:53;1.75;;;1.55;;
24567;SDS011;12731;52.182;8.716;2023-07-31T11:49:22;2.00;;;1.77;;
24567;SDS011;12731;52.182;8.716;2023-07-31T11:51:49;2.05;;;1.65;;
24567;SDS011;12731;52.182;8.716;2023-07-31T11:54:16;1.88;;;1.50;;
24567;SDS011;12731;52.182;8.716;2023-07-31T11:56:42;1.67;;;1.58;;
24567;SDS011;12731;52.182;8.716;2023-07-31T11:59:09;2.40;;;1.60;;
24567;SDS011;12731;52.182;8.716;2023-07-31T12:01:39;2.80;;;1.60;;
24567;SDS011;12731;52.182;8.716;2023-07-31T12:04:05;2.17;;;1.70;;
24567;SDS011;12731;52.182;8.716;2023-07-31T12:06:36;1.80;;;1.70;;
24567;SDS011;12731;52.182;8.716;2023-07-31T12:09:04;3.13;;;1.90;;
24567;SDS011;12731;52.182;8.716;2023-07-31T12:11:41;2.35;;;2.15;;
24567;SDS011;12731;52.182;8.716;2023-07-31T12:14:20;1.63;;;1.48;;
24567;SDS011;12731;52.182;8.716;2023-07-31T12:16:48;2.30;;;1.55;;
24567;SDS011;12731;52.182;8.716;2023-07-31T12:19:19;3.03;;;2.10;;
24567;SDS011;12731;52.182;8.716;2023-07-31T12:21:46;1.65;;;1.55;;
24567;SDS011;12731;52.182;8.716;2023-07-31T12:24:13;1.73;;;1.63;;
24567;SDS011;12731;52.182;8.716;2023-07-31T12:26:39;2.67;;;1.80;;
24567;SDS011;12731;52.182;8.716;2023-07-31T12:29:06;1.50;;;1.27;;
24567;SDS011;12731;52.182;8.716;2023-07-31T12:31:34;1.77;;;1.45;;
24567;SDS011;12731;52.182;8.716;2023-07-31T12:34:03;1.83;;;1.30;;
24567;SDS011;12731;52.182;8.716;2023-07-31T12:36:29;1.45;;;1.10;;
24567;SDS011;12731;52.182;8.716;2023-07-31T12:38:58;3.05;;;1.48;;
24567;SDS011;12731;52.182;8.716;2023-07-31T12:41:26;3.38;;;1.20;;
24567;SDS011;12731;52.182;8.716;2023-07-31T12:43:52;1.50;;;1.40;;
24567;SDS011;12731;52.182;8.716;2023-07-31T12:46:19;1.88;;;1.17;;
24567;SDS011;12731;52.182;8.716;2023-07-31T12:48:46;1.73;;;1.20;;
24567;SDS011;12731;52.182;8.716;2023-07-31T12:51:12;2.70;;;1.27;;
24567;SDS011;12731;52.182;8.716;2023-07-31T12:53:39;2.10;;;1.35;;
24567;SDS011;12731;52.182;8.716;2023-07-31T12:56:06;1.60;;;1.02;;
24567;SDS011;12731;52.182;8.716;2023-07-31T12:58:32;2.60;;;1.10;;
24567;SDS011;12731;52.182;8.716;2023-07-31T13:00:59;2.10;;;1.20;;
24567;SDS011;12731;52.182;8.716;2023-07-31T13:03:25;1.35;;;1.20;;
24567;SDS011;12731;52.182;8.716;2023-07-31T13:05:52;1.33;;;1.20;;
24567;SDS011;12731;52.182;8.716;2023-07-31T13:08:19;1.88;;;1.70;;
24567;SDS011;12731;52.182;8.716;2023-07-31T13:10:46;3.58;;;2.60;;
24567;SDS011;12731;52.182;8.716;2023-07-31T13:13:12;2.95;;;2.67;;
24567;SDS011;12731;52.182;8.716;2023-07-31T13:15:39;2.85;;;2.65;;
24567;SDS011;12731;52.182;8.716;2023-07-31T13:18:05;3.65;;;3.28;;
24567;SDS011;12731;52.182;8.716;2023-07-31T13:20:32;3.90;;;3.60;;
24567;SDS011;12731;52.182;8.716;2023-07-31T13:22:59;5.63;;;4.95;;
24567;SDS011;12731;52.182;8.716;2023-07-31T13:25:25;5.40;;;4.90;;
24567;SDS011;12731;52.182;8.716;2023-07-31T13:27:52;5.93;;;5.43;;
24567;SDS011;12731;52.182;8.716;2023-07-31T13:30:18;7.35;;;6.32;;
24567;SDS011;12731;52.182;8.716;2023-07-31T13:32:45;7.78;;;7.07;;
24567;SDS011;12731;52.182;8.716;2023-07-31T13:35:11;10.30;;;8.63;;
24567;SDS011;12731;52.182;8.716;2023-07-31T13:37:38;9.90;;;8.30;;
24567;SDS011;12731;52.182;8.716;2023-07-31T13:40:05;9.18;;;8.38;;
24567;SDS011;12731;52.182;8.716;2023-07-31T13:42:32;9.40;;;8.60;;
24567;SDS011;12731;52.182;8.716;2023-07-31T13:44:59;10.38;;;8.77;;
24567;SDS011;12731;52.182;8.716;2023-07-31T13:47:28;9.52;;;8.40;;
24567;SDS011;12731;52.182;8.716;2023-07-31T13:49:54;9.90;;;8.00;;
24567;SDS011;12731;52.182;8.716;2023-07-31T13:52:21;7.85;;;7.20;;
24567;SDS011;12731;52.182;8.716;2023-07-31T13:54:48;8.27;;;7.50;;
24567;SDS011;12731;52.182;8.716;2023-07-31T13:57:14;8.25;;;7.45;;
24567;SDS011;12731;52.182;8.716;2023-07-31T13:59:41;7.32;;;6.63;;
24567;SDS011;12731;52.182;8.716;2023-07-31T14:02:08;7.20;;;6.50;;
24567;SDS011;12731;52.182;8.716;2023-07-31T14:04:34;7.22;;;6.35;;
24567;SDS011;12731;52.182;8.716;2023-07-31T14:07:01;6.45;;;5.85;;
24567;SDS011;12731;52.182;8.716;2023-07-31T14:09:27;7.00;;;6.00;;
24567;SDS011;12731;52.182;8.716;2023-07-31T14:11:54;6.20;;;5.60;;
24567;SDS011;12731;52.182;8.716;2023-07-31T14:14:21;6.72;;;5.28;;
24567;SDS011;12731;52.182;8.716;2023-07-31T14:16:47;7.10;;;5.10;;
24567;SDS011;12731;52.182;8.716;2023-07-31T14:19:14;5.85;;;4.32;;
24567;SDS011;12731;52.182;8.716;2023-07-31T14:21:41;7.90;;;5.18;;
24567;SDS011;12731;52.182;8.716;2023-07-31T14:24:08;6.20;;;4.88;;
24567;SDS011;12731;52.182;8.716;2023-07-31T14:26:35;6.00;;;4.63;;
24567;SDS011;12731;52.182;8.716;2023-07-31T14:29:01;5.53;;;4.60;;
24567;SDS011;12731;52.182;8.716;2023-07-31T14:31:28;5.38;;;4.60;;
24567;SDS011;12731;52.182;8.716;2023-07-31T14:33:55;5.95;;;4.75;;
24567;SDS011;12731;52.182;8.716;2023-07-31T14:36:23;6.75;;;4.97;;
24567;SDS011;12731;52.182;8.716;2023-07-31T14:38:50;5.55;;;5.00;;
24567;SDS011;12731;52.182;8.716;2023-07-31T14:41:16;5.55;;;4.95;;
24567;SDS011;12731;52.182;8.716;2023-07-31T14:43:43;5.38;;;4.45;;
24567;SDS011;12731;52.182;8.716;2023-07-31T14:46:09;5.45;;;4.82;;
24567;SDS011;12731;52.182;8.716;2023-07-31T14:48:36;5.43;;;4.93;;
24567;SDS011;12731;52.182;8.716;2023-07-31T14:51:02;6.03;;;5.10;;
24567;SDS011;12731;52.182;8.716;2023-07-31T14:53:29;5.65;;;5.07;;